Time;durP1;ratioP1;P1;durP2;ratioP2;P2;SDS_P1;SDS_P2;PMS_P1;PMS_P2;Temp;Humidity;BMP_temperature;BMP_pressure;BME280_temperature;BME280_humidity;BME280_pressure;Samples;Min_cycle;Max_cycle;Signal;HPM_P1;HPM_P2
2022/03/01 00:00:37;;;;;;;6.75;3.42;;;;;;;3.60;61.56;102560.94;5050668;28;20040;-74
2022/03/01 00:03:04;;;;;;;7.03;4.05;;;;;;;3.55;62.23;102556.72;5053482;28;20048;-73
2022/03/01 00:05:30;;;;;;;8.02;5.30;;;;;;;3.61;61.24;102552.28;5053108;28;20048;-72
2022/03/01 00:07:57;;;;;;;5.57;3.47;;;;;;;3.48;62.40;102547.38;5054913;28;20072;-73
2022/03/01 00:10:24;;;;;;;7.57;4.68;;;;;;;3.45;62.39;102555.22;5060173;28;20083;-74
2022/03/01 00:12:53;;;;;;;7.68;4.00;;;;;;;3.50;62.75;102551.63;5057310;28;20040;-73
2022/03/01 00:15:20;;;;;;;7.53;4.43;;;;;;;3.41;63.06;102551.84;5063574;28;20036;-73
2022/03/01 00:17:47;;;;;;;8.88;3.40;;;;;;;3.42;62.88;102558.75;5054526;28;20061;-74
2022/03/01 00:20:14;;;;;;;9.77;4.55;;;;;;;3.50;61.83;102561.19;5063231;28;20052;-74
2022/03/01 00:22:40;;;;;;;8.30;4.15;;;;;;;3.47;62.21;102556.91;5056767;28;20124;-73
2022/03/01 00:25:08;;;;;;;13.45;5.07;;;;;;;3.36;62.17;102552.84;5053722;28;20199;-74
2022/03/01 00:27:35;;;;;;;10.52;4.53;;;;;;;3.20;62.16;102547.09;5052417;28;20121;-73
2022/03/01 00:30:04;;;;;;;12.98;3.85;;;;;;;3.16;62.74;102550.63;5053975;28;20049;-72
2022/03/01 00:32:31;;;;;;;11.10;4.82;;;;;;;3.17;62.60;102552.34;5036901;28;20186;-74
2022/03/01 00:34:57;;;;;;;6.78;3.35;;;;;;;3.24;62.01;102553.09;5056082;28;20041;-74
2022/03/01 00:37:24;;;;;;;7.93;4.07;;;;;;;3.16;61.99;102548.03;5053017;28;20090;-74
2022/03/01 00:39:52;;;;;;;5.65;3.28;;;;;;;3.16;62.36;102549.78;5058310;28;20055;-74
2022/03/01 00:42:18;;;;;;;6.20;4.03;;;;;;;3.19;61.89;102550.59;5062735;28;20056;-74
2022/03/01 00:44:46;;;;;;;7.00;3.53;;;;;;;3.20;62.10;102552.28;5059126;28;20052;-74
2022/03/01 00:47:14;;;;;;;8.23;3.50;;;;;;;3.34;61.90;102558.06;5058413;28;20048;-74
2022/03/01 00:49:41;;;;;;;6.00;3.88;;;;;;;3.24;62.00;102558.28;5074307;28;20074;-73
2022/03/01 00:52:07;;;;;;;7.05;4.47;;;;;;;3.05;62.89;102554.34;5073019;28;20053;-73
2022/03/01 00:54:34;;;;;;;11.48;5.47;;;;;;;2.95;63.78;102560.63;5067013;28;20959;-73
2022/03/01 00:57:01;;;;;;;7.63;3.70;;;;;;;2.94;63.74;102560.63;5073897;28;20125;-72
2022/03/01 00:59:27;;;;;;;5.72;3.35;;;;;;;3.01;63.31;102554.41;5053125;28;20148;-75
2022/03/01 01:01:54;;;;;;;6.28;3.15;;;;;;;3.12;63.04;102552.47;5063445;28;20051;-74
2022/03/01 01:04:22;;;;;;;4.13;2.80;;;;;;;3.11;63.53;102553.34;5056275;28;20062;-74
2022/03/01 01:06:48;;;;;;;8.55;4.43;;;;;;;3.06;63.43;102550.84;5056890;28;20040;-73
2022/03/01 01:09:15;;;;;;;9.25;5.20;;;;;;;3.03;63.25;102555.25;5054835;28;20120;-74
2022/03/01 01:11:42;;;;;;;12.95;4.65;;;;;;;3.34;62.96;102552.00;5051536;28;20040;-74
2022/03/01 01:14:08;;;;;;;8.77;4.53;;;;;;;3.34;62.54;102550.25;5055511;28;20048;-74
2022/03/01 01:16:35;;;;;;;7.53;4.38;;;;;;;3.33;62.71;102543.34;5058088;28;20155;-74
2022/03/01 01:19:02;;;;;;;6.70;3.60;;;;;;;3.22;63.15;102547.06;5058142;28;20853;-73
2022/03/01 01:24:10;;;;;;;5.75;2.33;;;;;;;3.23;62.99;102535.78;5047575;28;20052;-74
2022/03/01 01:26:37;;;;;;;5.10;3.75;;;;;;;3.12;63.80;102536.91;5055282;28;20052;-73
2022/03/01 01:29:04;;;;;;;10.65;4.70;;;;;;;3.11;63.62;102540.38;5056471;28;20101;-73
2022/03/01 01:31:31;;;;;;;7.72;3.92;;;;;;;2.99;64.24;102530.25;5054907;28;20053;-74
2022/03/01 01:33:57;;;;;;;6.18;4.25;;;;;;;3.00;64.18;102525.03;5062359;28;20040;-72
2022/03/01 01:36:25;;;;;;;12.50;3.55;;;;;;;2.98;64.33;102529.38;5053122;28;20049;-73
2022/03/01 01:38:54;;;;;;;27.00;5.22;;;;;;;2.86;64.74;102528.78;5076304;28;20040;-73
2022/03/01 01:41:20;;;;;;;12.23;4.93;;;;;;;2.97;64.13;102535.47;5051385;28;20045;-74
2022/03/01 01:43:47;;;;;;;13.50;3.78;;;;;;;2.85;65.13;102538.31;5062187;28;20037;-74
2022/03/01 01:46:14;;;;;;;7.80;4.68;;;;;;;2.71;65.21;102535.09;5072171;28;20040;-73
2022/03/01 01:48:40;;;;;;;9.52;4.97;;;;;;;2.59;65.82;102535.34;5070158;28;20040;-73
2022/03/01 01:51:07;;;;;;;5.53;3.35;;;;;;;2.41;66.26;102529.63;5060632;28;20064;-75
2022/03/01 01:53:34;;;;;;;13.55;3.65;;;;;;;2.21;67.55;102536.88;5060664;28;20958;-73
2022/03/01 01:56:02;;;;;;;7.28;3.90;;;;;;;2.11;68.25;102539.66;5058744;28;20044;-73
2022/03/01 01:58:29;;;;;;;7.85;5.05;;;;;;;2.10;68.29;102546.56;5052155;28;20044;-73
2022/03/01 02:00:56;;;;;;;10.90;4.68;;;;;;;2.12;68.73;102536.19;5063481;28;20040;-76
2022/03/01 02:03:22;;;;;;;7.30;3.78;;;;;;;2.15;67.76;102539.59;5057716;28;20048;-73
2022/03/01 02:05:49;;;;;;;8.88;4.03;;;;;;;2.09;68.12;102542.28;5058891;28;20036;-73
2022/03/01 02:08:16;;;;;;;5.50;3.38;;;;;;;2.01;68.40;102538.94;5057338;28;20151;-74
2022/03/01 02:10:43;;;;;;;5.80;3.65;;;;;;;1.98;68.31;102539.00;5055840;28;20227;-72
2022/03/01 02:13:11;;;;;;;14.20;3.20;;;;;;;2.01;68.40;102538.94;5053297;28;20044;-74
2022/03/01 02:15:37;;;;;;;6.88;4.13;;;;;;;2.08;68.54;102545.75;5057425;28;20036;-75
2022/03/01 02:18:04;;;;;;;5.93;3.28;;;;;;;2.15;67.95;102536.13;5061128;28;20079;-73
2022/03/01 02:20:32;;;;;;;10.13;4.80;;;;;;;2.31;68.09;102530.66;5058187;28;20093;-74
2022/03/01 02:23:01;;;;;;;5.25;3.63;;;;;;;2.30;67.63;102521.19;5059597;28;20040;-72
2022/03/01 02:25:27;;;;;;;5.30;3.50;;;;;;;2.34;67.63;102520.22;5057611;28;20044;-72
2022/03/01 02:27:55;;;;;;;8.82;4.20;;;;;;;2.27;67.96;102516.03;5059640;28;20502;-73
2022/03/01 02:30:21;;;;;;;10.43;4.13;;;;;;;2.31;68.40;102517.72;5058916;28;20037;-73
2022/03/01 02:32:49;;;;;;;7.22;4.20;;;;;;;2.29;69.01;102514.28;5058902;28;20136;-73
2022/03/01 02:35:15;;;;;;;4.68;3.17;;;;;;;2.18;70.02;102505.81;5075804;28;20072;-72
2022/03/01 02:37:43;;;;;;;5.47;2.78;;;;;;;2.23;69.57;102498.84;5059578;28;20045;-73
2022/03/01 02:40:11;;;;;;;6.93;3.78;;;;;;;2.27;69.15;102497.88;5062547;28;20079;-76
2022/03/01 02:42:40;;;;;;;7.38;4.38;;;;;;;2.34;68.22;102506.41;5064164;28;20063;-74
2022/03/01 02:45:08;;;;;;;16.38;5.43;;;;;;;2.23;68.75;102508.34;5077879;28;20111;-74
2022/03/01 02:47:35;;;;;;;9.13;5.30;;;;;;;2.08;70.16;102508.59;5074105;28;20127;-74
2022/03/01 02:50:02;;;;;;;6.88;4.38;;;;;;;1.95;70.63;102514.88;5064152;28;20075;-75
2022/03/01 02:52:29;;;;;;;7.43;3.83;;;;;;;1.71;71.74;102518.69;5058368;28;20040;-74
2022/03/01 02:54:57;;;;;;;8.82;4.63;;;;;;;1.49;72.72;102525.94;5057820;28;20044;-72
2022/03/01 02:57:24;;;;;;;4.50;3.40;;;;;;;1.30;73.67;102527.94;5054363;28;20040;-73
2022/03/01 02:59:52;;;;;;;5.03;3.75;;;;;;;1.17;73.70;102521.19;5052626;28;20067;-73
2022/03/01 03:02:23;;;;;;;5.30;3.08;;;;;;;1.04;73.87;102516.19;5053828;28;20055;-74
2022/03/01 03:04:50;;;;;;;7.45;3.17;;;;;;;0.92;75.22;102524.09;5063848;28;20281;-74
2022/03/01 03:07:17;;;;;;;16.42;3.25;;;;;;;0.82;75.03;102522.50;5061616;28;20052;-73
2022/03/01 03:09:43;;;;;;;7.07;3.63;;;;;;;0.77;75.22;102519.09;5057028;28;20033;-74
2022/03/01 03:12:12;;;;;;;7.88;3.28;;;;;;;0.68;74.76;102526.97;5054929;28;20102;-73
2022/03/01 03:14:38;;;;;;;5.47;2.70;;;;;;;0.63;75.07;102533.91;5060599;28;20072;-74
2022/03/01 03:17:06;;;;;;;6.47;3.88;;;;;;;0.55;74.65;102517.59;5072133;28;20122;-71
2022/03/01 03:19:33;;;;;;;9.68;4.38;;;;;;;0.48;75.28;102515.13;5059626;28;20044;-73
2022/03/01 03:21:59;;;;;;;6.65;3.90;;;;;;;0.46;75.25;102516.84;5055362;28;20135;-73
2022/03/01 03:24:26;;;;;;;6.72;3.83;;;;;;;0.46;74.68;102520.28;5060412;28;20072;-73
2022/03/01 03:26:53;;;;;;;14.00;3.47;;;;;;;0.44;75.11;102522.06;5054163;28;20108;-75
2022/03/01 03:29:21;;;;;;;8.23;2.83;;;;;;;0.42;75.65;102528.97;5056276;28;20040;-73
2022/03/01 03:31:48;;;;;;;8.95;4.55;;;;;;;0.32;75.40;102522.16;5047083;28;20049;-74
2022/03/01 03:34:15;;;;;;;10.05;3.60;;;;;;;0.30;76.02;102529.06;5053169;28;20052;-73
2022/03/01 03:36:43;;;;;;;6.38;3.10;;;;;;;0.29;76.09;102527.34;5052479;28;20048;-73
2022/03/01 03:39:11;;;;;;;6.35;4.22;;;;;;;0.28;76.82;102525.66;5059841;28;20050;-72
2022/03/01 03:41:38;;;;;;;5.38;3.47;;;;;;;0.26;77.59;102522.22;5055383;28;20040;-72
2022/03/01 03:44:06;;;;;;;7.32;4.22;;;;;;;0.34;76.86;102514.38;5054536;28;20156;-72
2022/03/01 03:46:34;;;;;;;3.85;2.88;;;;;;;0.39;77.47;102517.78;5058875;28;20052;-74
2022/03/01 03:49:00;;;;;;;3.83;2.58;;;;;;;0.51;77.01;102515.06;5053135;28;20036;-73
2022/03/01 03:51:28;;;;;;;5.95;2.90;;;;;;;0.56;76.00;102508.97;5057502;28;20135;-73
2022/03/01 03:53:55;;;;;;;7.45;3.17;;;;;;;0.67;76.35;102509.72;5057122;28;20047;-74
2022/03/01 03:56:21;;;;;;;9.90;3.13;;;;;;;0.76;76.62;102509.63;5056755;28;20033;-75
2022/03/01 03:58:48;;;;;;;6.38;4.03;;;;;;;0.95;76.29;102505.94;5054706;28;20043;-73
2022/03/01 04:01:15;;;;;;;4.50;3.50;;;;;;;1.04;76.11;102495.47;5056079;28;20045;-74
2022/03/01 04:03:43;;;;;;;7.38;4.13;;;;;;;0.95;78.61;102498.19;5049496;28;20048;-75
2022/03/01 04:06:10;;;;;;;10.55;4.53;;;;;;;0.84;80.38;102506.06;5055126;28;20089;-72
2022/03/01 04:08:37;;;;;;;3.97;2.20;;;;;;;0.73;81.03;102512.25;5057285;28;20069;-74
2022/03/01 04:11:04;;;;;;;10.50;3.30;;;;;;;0.77;79.02;102509.59;5051794;28;20029;-74
2022/03/01 04:13:31;;;;;;;7.72;4.55;;;;;;;0.74;79.89;102506.19;5059675;28;20048;-73
2022/03/01 04:15:58;;;;;;;6.45;4.47;;;;;;;0.69;79.73;102513.16;5050807;28;20044;-73
2022/03/01 04:18:25;;;;;;;4.70;2.72;;;;;;;0.64;80.45;102511.50;5060141;28;20035;-74
2022/03/01 04:20:53;;;;;;;6.13;2.75;;;;;;;0.72;78.29;102507.94;5058109;28;20123;-73
2022/03/01 04:23:20;;;;;;;5.03;3.22;;;;;;;0.76;78.36;102508.75;5064178;28;20086;-73
2022/03/01 04:25:46;;;;;;;7.78;3.83;;;;;;;0.81;77.83;102502.66;5070835;28;20060;-73
2022/03/01 04:28:14;;;;;;;20.80;4.20;;;;;;;0.90;77.13;102497.38;5083306;28;20044;-74
2022/03/01 04:30:41;;;;;;;4.00;3.08;;;;;;;0.96;77.19;102497.31;5061392;28;20040;-73
2022/03/01 04:33:07;;;;;;;6.63;4.13;;;;;;;1.00;78.39;102499.00;5058119;28;20052;-73
2022/03/01 04:35:34;;;;;;;7.60;4.13;;;;;;;1.15;75.94;102493.63;5057460;28;20105;-73
2022/03/01 04:38:04;;;;;;;8.32;3.60;;;;;;;1.34;74.22;102505.44;5059904;28;20132;-72
2022/03/01 04:40:32;;;;;;;6.97;3.88;;;;;;;1.21;74.96;102512.53;5077502;28;20041;-73
2022/03/01 04:42:59;;;;;;;6.10;4.10;;;;;;;1.26;74.27;102510.72;5072160;28;20044;-74
2022/03/01 04:45:25;;;;;;;8.88;3.40;;;;;;;1.18;75.47;102509.97;5066733;28;20650;-73
2022/03/01 04:47:53;;;;;;;5.57;3.10;;;;;;;1.16;75.38;102508.28;5060567;28;20071;-72
2022/03/01 04:50:19;;;;;;;14.48;3.28;;;;;;;1.13;75.14;102497.94;5068020;28;20144;-73
2022/03/01 04:52:46;;;;;;;5.57;4.10;;;;;;;1.30;74.16;102514.13;5053244;28;20062;-75
2022/03/01 04:55:14;;;;;;;8.05;3.90;;;;;;;1.38;73.44;102512.28;5057010;28;20052;-74
2022/03/01 04:57:42;;;;;;;5.25;3.47;;;;;;;1.38;73.27;102513.16;5053448;28;20041;-75
2022/03/01 05:00:11;;;;;;;4.35;3.42;;;;;;;1.41;73.89;102513.09;5055499;28;20055;-74
2022/03/01 05:02:39;;;;;;;5.15;2.88;;;;;;;1.39;73.54;102514.88;5049890;28;20066;-75
2022/03/01 05:05:10;;;;;;;7.45;4.03;;;;;;;1.29;74.09;102515.84;5054402;28;20040;-74
2022/03/01 05:07:39;;;;;;;7.32;4.18;;;;;;;1.21;75.03;102511.66;5051894;28;20563;-73
2022/03/01 05:10:07;;;;;;;5.10;3.70;;;;;;;1.09;76.37;102510.06;5069252;28;20053;-73
2022/03/01 05:12:41;;;;;;;7.85;3.22;;;;;;;1.17;75.35;102517.75;5056368;28;20044;-72
2022/03/01 05:15:08;;;;;;;7.20;4.28;;;;;;;1.17;75.80;102513.41;5056515;28;20098;-73
2022/03/01 05:17:35;;;;;;;6.43;3.88;;;;;;;1.14;76.52;102513.47;5069756;28;20372;-73
2022/03/01 05:20:02;;;;;;;6.78;3.95;;;;;;;1.20;75.58;102513.41;5060208;28;20044;-74
2022/03/01 05:22:28;;;;;;;8.32;4.97;;;;;;;1.40;74.66;102520.88;5061283;28;20048;-72
2022/03/01 05:24:55;;;;;;;5.53;3.20;;;;;;;1.48;74.90;102519.03;5058585;28;20052;-73
2022/03/01 05:27:22;;;;;;;7.38;4.13;;;;;;;1.67;73.12;102511.00;5060929;28;20123;-72
2022/03/01 05:29:51;;;;;;;6.53;3.40;;;;;;;1.75;72.84;102512.59;5051067;28;20052;-72
2022/03/01 05:32:18;;;;;;;8.18;4.88;;;;;;;1.76;73.05;102508.25;5054108;28;20114;-72
2022/03/01 05:34:45;;;;;;;5.88;3.15;;;;;;;1.87;71.75;102499.44;5051985;28;20400;-72
2022/03/01 05:37:11;;;;;;;5.28;4.07;;;;;;;2.02;71.67;102504.38;5059308;28;20037;-72
2022/03/01 05:39:38;;;;;;;4.97;3.72;;;;;;;2.07;71.17;102510.34;5056298;28;20047;-72
2022/03/01 05:42:05;;;;;;;6.10;3.63;;;;;;;2.15;70.80;102511.06;5058955;28;20521;-72
2022/03/01 05:44:32;;;;;;;7.60;4.50;;;;;;;2.14;71.26;102506.78;5049894;28;20044;-71
2022/03/01 05:47:00;;;;;;;10.43;6.40;;;;;;;2.16;71.75;102499.84;5054500;28;20047;-72
2022/03/01 05:49:27;;;;;;;8.52;4.82;;;;;;;2.21;71.71;102498.00;5056372;28;20044;-72
2022/03/01 05:51:54;;;;;;;11.77;4.05;;;;;;;2.19;71.67;102497.16;5056381;28;20087;-73
2022/03/01 05:54:21;;;;;;;12.27;4.90;;;;;;;2.19;71.70;102496.31;5051999;28;20041;-73
2022/03/01 05:56:48;;;;;;;13.48;3.83;;;;;;;2.24;71.79;102495.38;5059529;28;20093;-74
2022/03/01 05:59:15;;;;;;;9.43;4.45;;;;;;;2.22;71.16;102497.13;5061743;28;20171;-73
2022/03/01 06:01:41;;;;;;;7.93;4.45;;;;;;;2.30;71.53;102500.44;5058166;28;20036;-74
2022/03/01 06:04:09;;;;;;;7.80;4.38;;;;;;;2.32;70.81;102490.91;5064728;28;20039;-74
2022/03/01 06:06:36;;;;;;;15.23;4.32;;;;;;;2.37;70.82;102486.47;5055809;28;20044;-73
2022/03/01 06:09:02;;;;;;;6.70;4.10;;;;;;;2.41;70.30;102490.75;5056013;28;20110;-73
2022/03/01 06:11:30;;;;;;;8.15;4.05;;;;;;;2.32;71.29;102487.44;5055022;28;20036;-73
2022/03/01 06:13:56;;;;;;;9.77;4.75;;;;;;;2.31;71.58;102496.09;5056433;28;20055;-73
2022/03/01 06:16:23;;;;;;;13.00;3.95;;;;;;;2.27;71.10;102490.09;5055622;28;20045;-74
2022/03/01 06:18:50;;;;;;;9.27;4.85;;;;;;;2.19;72.04;102491.97;5057361;28;20131;-71
2022/03/01 06:21:18;;;;;;;6.25;3.72;;;;;;;2.25;71.75;102491.03;5058423;28;20041;-75
2022/03/01 06:23:45;;;;;;;10.55;4.50;;;;;;;2.28;70.97;102491.81;5057573;28;20123;-73
2022/03/01 06:26:12;;;;;;;6.80;3.47;;;;;;;2.26;71.45;102491.00;5053977;28;20037;-74
2022/03/01 06:28:39;;;;;;;7.05;4.65;;;;;;;2.38;70.25;102498.56;5052711;28;20135;-73
2022/03/01 06:31:06;;;;;;;6.93;3.60;;;;;;;2.35;70.92;102496.00;5058476;28;20393;-74
2022/03/01 06:33:33;;;;;;;7.40;3.88;;;;;;;2.41;70.45;102503.72;5065926;28;20055;-74
2022/03/01 06:35:59;;;;;;;4.28;2.63;;;;;;;2.50;70.11;102503.53;5077136;28;20119;-72
2022/03/01 06:38:28;;;;;;;6.20;4.07;;;;;;;2.51;69.97;102510.41;5067403;28;20045;-73
2022/03/01 06:40:56;;;;;;;9.27;4.00;;;;;;;2.58;69.00;102510.28;5080192;28;20046;-73
2022/03/01 06:43:23;;;;;;;4.93;3.55;;;;;;;2.62;68.42;102503.28;5059212;28;20049;-75
2022/03/01 06:45:50;;;;;;;5.82;3.75;;;;;;;2.58;69.06;102510.28;5055986;28;20136;-73
2022/03/01 06:48:16;;;;;;;8.43;3.22;;;;;;;2.54;68.84;102513.84;5056633;28;20109;-72
2022/03/01 06:50:43;;;;;;;12.80;3.65;;;;;;;2.57;68.80;102513.75;5059975;28;20043;-73
2022/03/01 06:53:11;;;;;;;6.95;3.60;;;;;;;2.52;69.47;102514.72;5060052;28;20075;-73
2022/03/01 06:55:40;;;;;;;5.25;3.28;;;;;;;2.56;69.09;102506.00;5058518;28;20048;-71
2022/03/01 06:58:06;;;;;;;6.60;3.90;;;;;;;2.58;69.23;102502.50;5058322;28;20044;-72
2022/03/01 07:00:33;;;;;;;5.97;3.72;;;;;;;2.57;69.24;102500.78;5052488;28;20589;-72
2022/03/01 07:03:00;;;;;;;4.10;3.00;;;;;;;2.59;69.30;102509.41;5059761;28;20107;-73
2022/03/01 07:05:27;;;;;;;5.88;3.75;;;;;;;2.61;69.25;102514.56;5065498;28;20119;-72
2022/03/01 07:08:03;;;;;;;11.18;4.10;;;;;;;2.65;69.41;102511.03;5061009;28;20055;-73
2022/03/01 07:10:29;;;;;;;9.30;3.72;;;;;;;2.70;68.78;102514.38;5058410;28;20096;-73
2022/03/01 07:12:57;;;;;;;4.95;3.20;;;;;;;2.75;69.23;102505.63;5055256;28;20058;-71
2022/03/01 07:15:24;;;;;;;5.13;3.35;;;;;;;2.86;68.63;102508.88;5051429;28;20083;-72
2022/03/01 07:17:52;;;;;;;5.00;3.80;;;;;;;2.95;68.40;102518.22;5050309;28;21089;-73
2022/03/01 07:20:19;;;;;;;7.50;4.22;;;;;;;3.07;67.29;102517.97;5055335;28;20131;-72
2022/03/01 07:22:46;;;;;;;5.28;3.25;;;;;;;3.20;66.98;102518.53;5056595;28;20123;-72
2022/03/01 07:25:14;;;;;;;8.48;2.92;;;;;;;3.30;66.70;102532.16;5059797;28;20036;-72
2022/03/01 07:27:49;;;;;;;3.88;2.83;;;;;;;3.46;65.92;102536.16;5061703;28;20049;-72
2022/03/01 07:30:18;;;;;;;6.28;3.50;;;;;;;3.65;65.24;102535.69;5068050;28;20072;-72
2022/03/01 07:32:44;;;;;;;7.38;4.65;;;;;;;3.93;64.50;102526.41;5056097;28;20116;-72
2022/03/01 07:35:11;;;;;;;6.93;3.75;;;;;;;4.24;63.05;102522.16;5056975;28;20135;-72
2022/03/01 07:37:38;;;;;;;7.32;4.43;;;;;;;4.31;63.89;102521.13;5054828;28;20122;-72
2022/03/01 07:40:11;;;;;;;3.85;2.85;;;;;;;5.47;59.92;102514.34;5055886;28;20041;-74
2022/03/01 07:42:38;;;;;;;7.85;3.70;;;;;;;5.53;58.79;102520.22;5057053;28;20498;-74
2022/03/01 07:45:05;;;;;;;10.88;4.60;;;;;;;5.26;59.13;102515.84;5050289;28;20523;-72
2022/03/01 07:47:33;;;;;;;5.53;3.88;;;;;;;5.18;59.65;102530.84;5060077;28;20048;-73
2022/03/01 07:50:00;;;;;;;5.90;3.22;;;;;;;5.84;57.98;102526.22;5052770;28;20135;-72
2022/03/01 07:52:26;;;;;;;10.15;4.82;;;;;;;7.28;52.76;102520.25;5061517;28;20079;-72
2022/03/01 07:54:53;;;;;;;6.53;3.70;;;;;;;7.73;52.93;102508.88;5058489;28;20052;-74
2022/03/01 07:57:20;;;;;;;6.53;4.13;;;;;;;7.52;51.28;102506.22;5054198;28;20056;-73
2022/03/01 07:59:47;;;;;;;5.35;3.78;;;;;;;6.74;54.14;102514.44;5045670;28;20121;-72
2022/03/01 08:02:14;;;;;;;9.73;5.72;;;;;;;6.12;55.85;102517.47;5057391;28;20127;-73
2022/03/01 08:04:42;;;;;;;8.18;3.92;;;;;;;5.78;57.11;102529.88;5048160;28;20044;-72
2022/03/01 08:07:09;;;;;;;4.97;3.15;;;;;;;5.64;57.52;102533.78;5057169;28;20056;-72
2022/03/01 08:09:35;;;;;;;7.10;4.13;;;;;;;5.76;57.05;102533.41;5081130;28;20049;-72
2022/03/01 08:12:04;;;;;;;6.20;3.92;;;;;;;6.48;55.93;102526.69;5055666;28;20110;-71
2022/03/01 08:14:31;;;;;;;10.05;4.43;;;;;;;7.09;53.74;102527.09;5056734;28;20053;-70
2022/03/01 08:16:58;;;;;;;37.35;5.05;;;;;;;7.74;51.55;102530.66;5054960;28;20116;-71
2022/03/01 08:19:25;;;;;;;8.43;4.32;;;;;;;7.40;51.95;102544.16;5059385;28;20136;-71
2022/03/01 08:21:54;;;;;;;10.23;4.95;;;;;;;6.84;52.93;102543.66;5054618;28;20044;-73
2022/03/01 08:24:21;;;;;;;7.03;3.67;;;;;;;6.80;54.13;102544.69;5060421;28;20174;-72
2022/03/01 08:26:49;;;;;;;5.10;3.33;;;;;;;6.58;54.42;102556.78;5060300;28;20048;-71
2022/03/01 08:29:26;;;;;;;15.60;4.60;;;;;;;6.52;55.18;102559.59;5069927;28;20131;-71
2022/03/01 08:31:53;;;;;;;8.68;4.20;;;;;;;6.72;55.06;102555.41;5062580;28;20039;-72
2022/03/01 08:34:20;;;;;;;6.47;3.85;;;;;;;6.42;55.90;102537.31;5056484;28;20056;-70
2022/03/01 08:36:46;;;;;;;6.90;3.70;;;;;;;6.31;55.96;102529.00;5055727;28;20119;-70
2022/03/01 08:39:14;;;;;;;6.53;4.32;;;;;;;6.10;55.99;102539.28;5062613;28;20044;-69
2022/03/01 08:41:41;;;;;;;7.03;4.18;;;;;;;6.20;56.88;102532.84;5061888;28;20068;-72
2022/03/01 08:44:08;;;;;;;6.93;4.32;;;;;;;6.07;56.54;102540.25;5051835;28;20036;-72
2022/03/01 08:46:35;;;;;;;7.97;4.35;;;;;;;5.85;56.49;102538.38;5054138;28;20048;-70
2022/03/01 08:49:02;;;;;;;9.18;4.00;;;;;;;5.54;57.18;102542.75;5056442;28;20055;-73
2022/03/01 08:51:28;;;;;;;12.52;5.07;;;;;;;5.52;57.70;102544.59;5056374;28;20037;-72
2022/03/01 08:53:55;;;;;;;9.20;4.40;;;;;;;5.56;58.74;102551.41;5053905;28;20505;-72
2022/03/01 08:56:23;;;;;;;8.40;4.60;;;;;;;5.61;57.21;102555.56;5073265;28;20039;-71
2022/03/01 08:58:50;;;;;;;8.80;3.95;;;;;;;5.77;58.30;102541.19;5060412;28;20032;-73
2022/03/01 09:01:17;;;;;;;6.95;4.13;;;;;;;6.13;57.69;102549.63;5064724;28;20049;-73
2022/03/01 09:03:44;;;;;;;6.03;4.07;;;;;;;6.86;55.57;102550.53;5055492;28;20049;-75
2022/03/01 09:06:11;;;;;;;11.18;4.88;;;;;;;7.89;53.63;102548.38;5060733;28;20319;-71
2022/03/01 09:08:40;;;;;;;14.77;4.60;;;;;;;7.76;51.03;102547.13;5055646;28;20072;-73
2022/03/01 09:11:07;;;;;;;8.57;3.33;;;;;;;7.33;52.54;102550.53;5058064;28;20045;-71
2022/03/01 09:13:36;;;;;;;7.55;4.63;;;;;;;7.08;53.61;102545.41;5057243;28;20171;-71
2022/03/01 09:16:02;;;;;;;10.40;3.88;;;;;;;7.19;53.91;102544.97;5056423;28;20121;-72
2022/03/01 09:18:29;;;;;;;10.68;5.25;;;;;;;7.07;53.43;102534.13;5060527;28;20081;-72
2022/03/01 09:20:56;;;;;;;7.03;4.55;;;;;;;6.90;53.87;102535.59;5056572;28;20049;-72
2022/03/01 09:23:23;;;;;;;9.38;4.50;;;;;;;7.14;53.21;102534.75;5064278;28;20051;-71
2022/03/01 09:25:49;;;;;;;4.35;3.00;;;;;;;7.22;53.07;102537.00;5053307;28;20044;-72
2022/03/01 09:28:18;;;;;;;6.88;4.50;;;;;;;7.31;52.75;102533.22;5059124;28;21637;-70
2022/03/01 09:30:46;;;;;;;5.95;3.67;;;;;;;7.09;53.02;102540.16;5058940;28;20048;-72
2022/03/01 09:33:13;;;;;;;7.82;4.38;;;;;;;7.14;53.17;102546.03;5060753;28;20654;-72
2022/03/01 09:35:40;;;;;;;7.65;4.45;;;;;;;7.31;53.31;102549.72;5061842;28;20499;-72
2022/03/01 09:38:07;;;;;;;12.32;5.78;;;;;;;7.31;52.25;102557.56;5056377;28;20072;-72
2022/03/01 09:40:34;;;;;;;13.38;4.43;;;;;;;7.46;52.57;102549.19;5056377;28;20051;-70
2022/03/01 09:43:01;;;;;;;9.98;4.80;;;;;;;7.29;52.00;102561.16;5071160;28;20087;-72
2022/03/01 09:45:28;;;;;;;8.68;4.65;;;;;;;7.44;52.49;102561.44;5073105;28;20048;-72
2022/03/01 09:47:56;;;;;;;7.60;4.63;;;;;;;7.56;51.50;102555.75;5076702;28;20066;-74
2022/03/01 09:50:27;;;;;;;10.50;4.47;;;;;;;7.62;52.56;102560.75;5075751;28;20101;-73
2022/03/01 09:52:54;;;;;;;8.23;5.05;;;;;;;7.45;52.06;102572.75;5053989;28;20130;-72
2022/03/01 09:55:21;;;;;;;13.55;5.38;;;;;;;7.47;52.61;102566.53;5061887;28;20118;-72
2022/03/01 09:57:48;;;;;;;8.80;4.47;;;;;;;7.61;52.45;102563.41;5058078;28;20090;-72
2022/03/01 10:00:15;;;;;;;27.35;5.28;;;;;;;7.77;52.50;102548.84;5060297;28;20040;-72
2022/03/01 10:02:44;;;;;;;9.85;4.65;;;;;;;7.84;51.29;102558.19;5057450;28;20053;-73
2022/03/01 10:05:13;;;;;;;8.45;4.85;;;;;;;7.67;52.09;102558.81;5065567;28;20040;-74
2022/03/01 10:07:43;;;;;;;8.98;5.47;;;;;;;7.91;51.86;102557.00;5060233;28;20048;-73
2022/03/01 10:10:13;;;;;;;9.00;4.43;;;;;;;8.12;51.12;102560.47;5062870;28;20051;-74
2022/03/01 10:12:41;;;;;;;9.40;5.10;;;;;;;8.27;51.11;102557.25;5058284;28;20052;-72
2022/03/01 10:15:10;;;;;;;10.52;5.40;;;;;;;8.40;49.87;102558.47;5061980;28;20098;-73
2022/03/01 10:17:39;;;;;;;12.02;5.65;;;;;;;8.32;50.58;102565.81;5076581;28;20059;-73
2022/03/01 10:20:08;;;;;;;11.10;6.03;;;;;;;8.26;51.45;102560.78;5061710;28;20036;-71
2022/03/01 10:22:39;;;;;;;15.40;5.95;;;;;;;8.23;52.20;102560.94;5069359;28;20046;-71
2022/03/01 10:25:07;;;;;;;10.93;5.85;;;;;;;8.11;51.23;102568.41;5082143;28;20127;-74
2022/03/01 10:27:35;;;;;;;7.63;4.30;;;;;;;8.08;51.66;102569.34;5071647;28;20088;-72
2022/03/01 10:30:02;;;;;;;18.23;5.53;;;;;;;8.29;51.87;102565.91;5064556;28;20064;-73
2022/03/01 10:32:28;;;;;;;10.02;4.63;;;;;;;8.28;51.14;102564.19;5059182;28;20045;-70
2022/03/01 10:34:59;;;;;;;8.88;4.05;;;;;;;8.56;51.62;102553.44;5063029;28;20040;-72
2022/03/01 10:37:27;;;;;;;12.20;5.38;;;;;;;8.78;51.04;102555.91;5057549;28;20140;-73
2022/03/01 10:42:59;;;;;;;10.35;4.63;;;;;;;8.99;49.83;102547.13;5063068;27;1237098;-74
2022/03/01 10:45:34;;;;;;;10.25;5.10;;;;;;;9.29;48.67;102539.69;5089655;28;20089;-73
2022/03/01 10:48:02;;;;;;;9.75;4.63;;;;;;;9.61;47.50;102535.50;5088491;28;20043;-74
2022/03/01 10:50:29;;;;;;;10.85;5.35;;;;;;;9.89;46.87;102540.28;5091127;28;20079;-74
2022/03/01 10:52:56;;;;;;;10.32;5.18;;;;;;;10.03;46.29;102528.25;5091294;28;20067;-74
2022/03/01 10:55:24;;;;;;;12.45;5.32;;;;;;;10.03;45.58;102528.25;5087243;28;20035;-73
2022/03/01 10:58:05;;;;;;;11.27;5.97;;;;;;;10.09;45.73;102533.19;5094685;28;20040;-74
2022/03/01 11:00:32;;;;;;;8.98;5.38;;;;;;;9.67;45.21;102550.09;5091157;28;20119;-73
2022/03/01 11:02:59;;;;;;;11.73;5.07;;;;;;;9.34;46.72;102551.66;5077526;28;20139;-74
2022/03/01 11:05:27;;;;;;;9.82;5.50;;;;;;;9.12;48.02;102550.06;5090903;28;20028;-73
2022/03/01 11:07:54;;;;;;;13.02;4.95;;;;;;;9.35;46.86;102537.63;5095312;28;20693;-72
2022/03/01 11:10:22;;;;;;;9.68;5.13;;;;;;;9.56;47.72;102530.53;5090024;28;20036;-73
2022/03/01 11:12:49;;;;;;;10.90;5.43;;;;;;;9.71;46.92;102528.91;5092642;28;20043;-74
2022/03/01 11:15:24;;;;;;;10.25;4.68;;;;;;;9.99;47.65;102531.09;5090591;28;20043;-74
2022/03/01 11:17:57;;;;;;;10.65;5.60;;;;;;;10.36;46.02;102530.97;5072990;28;20375;-75
2022/03/01 11:20:27;;;;;;;13.82;6.22;;;;;;;10.57;45.99;102526.34;5087072;28;20047;-74
2022/03/01 11:22:57;;;;;;;10.15;5.75;;;;;;;10.44;45.80;102527.03;5094216;28;20399;-73
2022/03/01 11:25:25;;;;;;;8.25;4.40;;;;;;;10.33;45.68;102520.63;5089479;28;20036;-73
2022/03/01 11:27:54;;;;;;;9.77;5.45;;;;;;;10.65;45.56;102520.69;5090753;28;20059;-73
2022/03/01 11:30:28;;;;;;;7.03;3.33;;;;;;;11.00;43.74;102524.97;5099116;28;20398;-74
2022/03/01 11:32:56;;;;;;;7.93;4.75;;;;;;;10.60;43.63;102523.53;5092282;28;20044;-73
2022/03/01 11:35:26;;;;;;;12.60;4.97;;;;;;;10.74;44.00;102530.72;5079241;28;20036;-76
2022/03/01 11:38:04;;;;;;;11.90;5.57;;;;;;;11.13;43.66;102529.50;5075495;28;20347;-74